createdAt,value
2022-12-14T00:04:05.867Z,8.00
2022-12-14T00:09:08.971Z,7.97
2022-12-14T00:14:12.188Z,8.67
2022-12-14T00:19:17.139Z,9.70
2022-12-14T00:24:20.372Z,7.60
2022-12-14T00:29:23.487Z,7.10
2022-12-14T00:34:27.990Z,8.07
2022-12-14T00:39:31.298Z,7.93
2022-12-14T00:44:34.519Z,6.70
2022-12-14T00:49:39.163Z,7.73
2022-12-14T00:54:42.371Z,7.70
2022-12-14T00:59:45.602Z,7.80
2022-12-14T01:04:50.064Z,8.43
2022-12-14T01:09:53.153Z,6.90
2022-12-14T01:14:56.458Z,7.00
2022-12-14T01:20:00.937Z,7.37
2022-12-14T01:25:04.733Z,6.90
2022-12-14T01:30:08.855Z,6.87
2022-12-14T01:35:13.376Z,7.83
2022-12-14T01:40:16.602Z,8.47
2022-12-14T01:45:22.257Z,7.43
2022-12-14T01:50:32.285Z,7.23
2022-12-14T01:55:37.712Z,7.43
2022-12-14T02:00:41.185Z,7.53
2022-12-14T02:05:49.735Z,7.77
2022-12-14T02:10:54.525Z,6.63
2022-12-14T02:15:57.683Z,8.23
2022-12-14T02:21:20.155Z,8.17
2022-12-14T02:26:59.067Z,7.57
2022-12-14T02:32:17.562Z,7.73
2022-12-14T02:37:26.697Z,8.03
2022-12-14T02:42:41.905Z,9.00
2022-12-14T02:47:54.638Z,8.40
2022-12-14T02:53:05.490Z,8.77
2022-12-14T02:58:14.206Z,10.33
2022-12-14T03:03:18.895Z,8.23
2022-12-14T03:08:24.156Z,7.50
2022-12-14T03:13:31.296Z,8.83
2022-12-14T03:18:40.311Z,8.53
2022-12-14T03:23:48.709Z,8.10
2022-12-14T03:28:55.646Z,7.13
2022-12-14T03:34:02.743Z,9.23
2022-12-14T03:39:11.690Z,7.80
2022-12-14T03:44:25.131Z,7.47
2022-12-14T03:49:49.022Z,8.43
2022-12-14T03:55:01.433Z,8.23
2022-12-14T04:00:09.268Z,7.63
2022-12-14T04:05:21.981Z,7.57
2022-12-14T04:10:47.451Z,7.60
2022-12-14T04:16:24.933Z,8.67
2022-12-14T04:21:37.675Z,8.93
2022-12-14T04:26:46.753Z,9.53
2022-12-14T04:31:54.230Z,8.07
2022-12-14T04:37:01.159Z,8.90
2022-12-14T04:42:08.164Z,8.17
2022-12-14T04:47:15.099Z,7.97
2022-12-14T04:52:26.275Z,8.83
2022-12-14T04:57:36.973Z,8.97
2022-12-14T05:02:53.773Z,8.77
2022-12-14T05:08:06.764Z,8.90
2022-12-14T05:13:14.544Z,7.47
2022-12-14T05:18:18.191Z,9.87
2022-12-14T05:23:22.670Z,8.50
2022-12-14T05:28:25.851Z,9.20
2022-12-14T05:33:29.401Z,8.23
2022-12-14T05:38:34.199Z,8.53
2022-12-14T05:43:37.262Z,8.60
2022-12-14T05:48:43.660Z,10.17
2022-12-14T05:53:50.543Z,9.30
2022-12-14T05:58:53.686Z,10.10
2022-12-14T06:03:56.869Z,9.17
2022-12-14T06:09:01.572Z,10.10
2022-12-14T06:14:05.330Z,9.13
2022-12-14T06:19:09.213Z,10.20
2022-12-14T06:24:15.019Z,9.23
2022-12-14T06:29:19.758Z,9.63
2022-12-14T06:34:28.174Z,10.30
2022-12-14T06:39:33.329Z,9.60
2022-12-14T06:44:37.604Z,10.47
2022-12-14T06:49:40.767Z,16.13
2022-12-14T06:54:45.236Z,9.43
2022-12-14T06:59:48.442Z,10.60
2022-12-14T07:04:51.615Z,10.97
2022-12-14T07:09:56.101Z,11.63
2022-12-14T07:14:59.727Z,9.93
2022-12-14T07:20:03.324Z,10.87
2022-12-14T07:25:08.841Z,9.20
2022-12-14T07:30:12.861Z,10.97
2022-12-14T07:35:16.852Z,10.03
2022-12-14T07:40:21.543Z,12.80
2022-12-14T07:45:25.819Z,9.90
2022-12-14T07:50:29.086Z,10.17
2022-12-14T07:55:36.203Z,11.60
2022-12-14T08:00:39.347Z,11.30
2022-12-14T08:05:42.446Z,12.13
2022-12-14T08:10:49.859Z,12.90
2022-12-14T08:15:52.993Z,11.30
2022-12-14T08:20:56.111Z,12.63
2022-12-14T08:26:02.061Z,13.03
2022-12-14T08:31:06.958Z,10.83
2022-12-14T08:36:13.095Z,11.07
2022-12-14T08:41:17.605Z,10.47
2022-12-14T08:46:21.743Z,13.40
2022-12-14T08:51:26.105Z,12.53
2022-12-14T08:56:30.572Z,12.50
2022-12-14T09:01:34.839Z,11.30
2022-12-14T09:06:39.965Z,13.60
2022-12-14T09:11:44.719Z,12.90
2022-12-14T09:16:47.868Z,11.40
2022-12-14T09:21:51.010Z,10.73
2022-12-14T09:26:55.871Z,10.23
2022-12-14T09:31:59.063Z,10.60
2022-12-14T09:37:04.658Z,10.83
2022-12-14T09:42:29.949Z,12.07
2022-12-14T09:47:38.697Z,11.03
2022-12-14T09:52:46.195Z,11.00
2022-12-14T09:57:56.562Z,10.87
2022-12-14T10:03:29.392Z,10.87
2022-12-14T10:08:40.260Z,10.87
2022-12-14T10:13:52.305Z,10.63
2022-12-14T10:19:17.159Z,12.80
2022-12-14T10:24:25.317Z,11.60
2022-12-14T10:29:34.344Z,11.43
2022-12-14T10:34:41.397Z,11.93
2022-12-14T10:39:52.471Z,10.30
2022-12-14T10:50:49.735Z,14.03
2022-12-14T10:55:57.661Z,11.00
2022-12-14T11:01:02.235Z,11.43
2022-12-14T11:06:12.064Z,11.20
2022-12-14T11:11:19.384Z,10.53
2022-12-14T11:16:36.591Z,11.37
2022-12-14T11:21:40.460Z,11.63
2022-12-14T11:26:45.012Z,11.00
2022-12-14T11:31:52.517Z,11.23
2022-12-14T11:36:55.590Z,11.57
2022-12-14T11:42:03.065Z,12.37
2022-12-14T11:47:13.612Z,13.53
2022-12-14T11:52:18.515Z,12.53
2022-12-14T11:57:27.545Z,12.97
2022-12-14T12:02:35.369Z,11.93
2022-12-14T12:07:41.040Z,10.67
2022-12-14T12:12:54.656Z,12.63
2022-12-14T12:18:06.253Z,12.27
2022-12-14T12:23:15.436Z,13.33
2022-12-14T12:28:25.617Z,16.27
2022-12-14T12:33:36.271Z,14.23
2022-12-14T12:38:57.688Z,13.93
2022-12-14T12:44:07.745Z,13.30
2022-12-14T12:49:15.862Z,12.17
2022-12-14T12:54:23.759Z,13.07
2022-12-14T12:59:36.162Z,13.73
2022-12-14T13:04:46.523Z,12.00
2022-12-14T13:10:05.027Z,12.97
2022-12-14T13:15:19.193Z,10.90
2022-12-14T13:20:28.170Z,10.87
2022-12-14T13:25:42.385Z,11.90
2022-12-14T13:31:02.598Z,11.37
2022-12-14T13:36:26.358Z,12.07
2022-12-14T13:41:38.614Z,12.40
2022-12-14T13:46:42.161Z,13.43
2022-12-14T13:51:50.736Z,18.80
2022-12-14T13:57:06.488Z,14.90
2022-12-14T14:02:40.707Z,26.77
2022-12-14T14:07:54.430Z,13.90
2022-12-14T14:12:57.620Z,13.97
2022-12-14T14:18:13.458Z,12.47
2022-12-14T14:23:53.140Z,12.43
2022-12-14T14:29:20.398Z,11.97
2022-12-14T14:34:37.597Z,12.23
2022-12-14T14:40:04.920Z,16.50
2022-12-14T14:45:08.880Z,13.40
2022-12-14T14:50:24.887Z,13.63
2022-12-14T14:55:59.909Z,12.87
2022-12-14T15:01:26.896Z,13.43
2022-12-14T15:06:32.791Z,12.83
2022-12-14T15:11:48.856Z,13.87
2022-12-14T15:16:52.089Z,14.10
2022-12-14T15:21:58.220Z,13.43
2022-12-14T15:27:11.087Z,14.07
2022-12-14T15:32:17.627Z,13.63
2022-12-14T15:37:28.948Z,14.83
2022-12-14T15:42:33.569Z,14.27
2022-12-14T15:47:36.819Z,13.90
2022-12-14T15:52:40.424Z,15.90
2022-12-14T15:57:44.945Z,13.03
2022-12-14T16:02:48.383Z,12.37
2022-12-14T16:07:55.552Z,15.40
2022-12-14T16:13:04.923Z,15.37
2022-12-14T16:18:12.747Z,14.63
2022-12-14T16:23:29.070Z,14.23
2022-12-14T16:28:35.842Z,17.27
2022-12-14T16:33:40.628Z,14.83
2022-12-14T16:38:56.701Z,14.07
2022-12-14T16:44:02.573Z,16.63
2022-12-14T16:49:30.187Z,16.13
2022-12-14T16:54:34.875Z,16.50
2022-12-14T16:59:43.345Z,17.13
2022-12-14T17:04:46.475Z,16.53
2022-12-14T17:09:49.598Z,13.43
2022-12-14T17:14:54.477Z,15.37
2022-12-14T17:19:57.675Z,16.17
2022-12-14T17:25:02.432Z,16.00
2022-12-14T17:30:08.765Z,14.40
2022-12-14T17:35:17.656Z,16.60
2022-12-14T17:40:20.804Z,16.37
2022-12-14T17:45:27.380Z,15.47
2022-12-14T17:50:31.040Z,16.73
2022-12-14T17:55:34.156Z,16.40
2022-12-14T18:00:56.759Z,15.00
2022-12-14T18:06:00.724Z,13.87
2022-12-14T18:11:13.295Z,14.57
2022-12-14T18:16:20.382Z,15.07
2022-12-14T18:21:26.003Z,16.47
2022-12-14T18:26:29.121Z,17.97
2022-12-14T18:31:37.454Z,14.63
2022-12-14T18:36:41.072Z,16.87
2022-12-14T18:41:44.307Z,16.40
2022-12-14T18:46:49.741Z,18.60
2022-12-14T18:51:52.862Z,20.40
2022-12-14T18:56:55.988Z,19.17
2022-12-14T19:02:00.571Z,18.33
2022-12-14T19:07:03.806Z,20.47
2022-12-14T19:12:07.463Z,16.47
2022-12-14T19:17:11.896Z,18.40
2022-12-14T19:22:15.121Z,18.90
2022-12-14T19:27:35.686Z,23.50
2022-12-14T19:32:42.685Z,19.33
2022-12-14T19:37:47.836Z,18.87
2022-12-14T19:42:51.244Z,57.83
2022-12-14T19:47:55.702Z,35.13
2022-12-14T19:52:58.807Z,36.57
2022-12-14T19:58:01.929Z,26.57
2022-12-14T20:03:06.496Z,23.63
2022-12-14T20:08:09.634Z,22.27
2022-12-14T20:13:15.283Z,19.00
2022-12-14T20:18:21.019Z,20.23
2022-12-14T20:23:24.112Z,18.93
2022-12-14T20:28:29.923Z,19.57
2022-12-14T20:33:35.359Z,24.80
2022-12-14T20:38:39.385Z,22.17
2022-12-14T20:43:45.209Z,20.73
2022-12-14T20:48:50.188Z,20.47
2022-12-14T20:53:53.341Z,20.33
2022-12-14T20:58:58.649Z,19.60
2022-12-14T21:04:03.928Z,19.83
2022-12-14T21:09:10.153Z,17.93
2022-12-14T21:14:14.688Z,16.83
2022-12-14T21:19:19.554Z,17.03
2022-12-14T21:29:47.526Z,16.60
2022-12-14T21:34:52.359Z,18.87
2022-12-14T21:39:56.008Z,19.50
2022-12-14T21:44:59.355Z,16.73
2022-12-14T21:50:03.926Z,16.93
2022-12-14T21:55:08.247Z,17.63
2022-12-14T22:00:12.708Z,19.67
2022-12-14T22:05:17.486Z,18.67
2022-12-14T22:10:24.894Z,20.20
2022-12-14T22:15:28.487Z,20.10
2022-12-14T22:20:32.967Z,20.17
2022-12-14T22:25:36.096Z,18.03
2022-12-14T22:30:39.445Z,17.07
2022-12-14T22:35:43.976Z,17.77
2022-12-14T22:40:47.229Z,18.47
2022-12-14T22:45:50.406Z,18.10
2022-12-14T22:50:58.722Z,17.57
2022-12-14T22:56:08.280Z,18.23
2022-12-14T23:01:11.690Z,17.63
2022-12-14T23:06:19.138Z,18.33
2022-12-14T23:11:39.488Z,17.37
2022-12-14T23:16:59.746Z,18.60
2022-12-14T23:22:21.896Z,18.77
2022-12-14T23:27:42.604Z,19.47
2022-12-14T23:33:03.751Z,21.27
2022-12-14T23:38:26.514Z,21.43
2022-12-14T23:43:46.873Z,19.23
2022-12-14T23:49:12.053Z,18.70
2022-12-14T23:54:37.548Z,17.83
2022-12-14T23:59:57.892Z,18.83
